createdAt,value
2017-04-17T00:00:48.832Z,0
2017-04-17T00:01:48.866Z,0
2017-04-17T00:02:49.200Z,0
2017-04-17T00:03:49.558Z,0
2017-04-17T00:04:49.292Z,0
2017-04-17T00:05:49.021Z,0
2017-04-17T00:06:49.034Z,0
2017-04-17T00:07:49.411Z,0
2017-04-17T00:08:49.418Z,0
2017-04-17T00:09:49.454Z,0
2017-04-17T00:10:49.185Z,0
2017-04-17T00:11:49.214Z,0
2017-04-17T00:12:49.243Z,0
2017-04-17T00:13:49.271Z,0
2017-04-17T00:14:49.619Z,0
2017-04-17T00:15:49.351Z,0
2017-04-17T00:16:49.697Z,0
2017-04-17T00:17:49.719Z,0
2017-04-17T00:18:50.238Z,0
2017-04-17T00:19:49.489Z,0
2017-04-17T00:20:49.510Z,0
2017-04-17T00:21:50.158Z,0
2017-04-17T00:22:50.225Z,0
2017-04-17T00:23:49.613Z,0
2017-04-17T00:24:50.250Z,0
2017-04-17T00:25:49.683Z,0
2017-04-17T00:26:49.712Z,0
2017-04-17T00:27:49.746Z,0
2017-04-17T00:28:50.090Z,0
2017-04-17T00:29:50.121Z,0
2017-04-17T00:30:50.194Z,0
2017-04-17T00:31:49.878Z,0
2017-04-17T00:32:50.241Z,0
2017-04-17T00:33:50.549Z,0
2017-04-17T00:34:49.998Z,0
2017-04-17T00:35:50.026Z,0
2017-04-17T00:36:50.343Z,0
2017-04-17T00:37:50.378Z,0
2017-04-17T00:38:50.730Z,0
2017-04-17T00:39:50.754Z,0
2017-04-17T00:40:50.180Z,0
2017-04-17T00:41:50.215Z,0
2017-04-17T00:42:50.272Z,0
2017-04-17T00:43:50.604Z,0
2017-04-17T00:44:50.629Z,0
2017-04-17T00:45:50.647Z,0
2017-04-17T00:46:50.694Z,0
2017-04-17T00:47:51.324Z,0
2017-04-17T00:48:51.068Z,0
2017-04-17T00:49:50.481Z,0
2017-04-17T00:50:50.524Z,0
2017-04-17T00:51:50.554Z,0
2017-04-17T00:52:50.909Z,0
2017-04-17T00:53:50.923Z,0
2017-04-17T00:54:50.665Z,0
2017-04-17T00:55:50.989Z,0
2017-04-17T00:56:51.023Z,0
2017-04-17T00:57:50.771Z,0
2017-04-17T00:58:51.088Z,0
2017-04-17T00:59:50.829Z,0
2017-04-17T01:00:51.153Z,0
2017-04-17T01:01:50.907Z,0
2017-04-17T01:02:51.552Z,0
2017-04-17T01:03:51.255Z,0
2017-04-17T01:04:50.999Z,0
2017-04-17T01:05:51.028Z,0
2017-04-17T01:06:51.080Z,0
2017-04-17T01:07:51.095Z,0
2017-04-17T01:08:51.741Z,0
2017-04-17T01:09:51.462Z,0
2017-04-17T01:10:51.501Z,0
2017-04-17T01:11:51.240Z,0
2017-04-17T01:12:51.570Z,0
2017-04-17T01:13:51.607Z,0
2017-04-17T01:14:51.630Z,0
2017-04-17T01:15:51.381Z,0
2017-04-17T01:16:51.714Z,0
2017-04-17T01:17:51.729Z,0
2017-04-17T01:18:52.082Z,0
2017-04-17T01:19:51.799Z,0
2017-04-17T01:20:52.166Z,0
2017-04-17T01:21:51.878Z,0
2017-04-17T01:22:51.929Z,0
2017-04-17T01:23:52.238Z,0
2017-04-17T01:24:52.287Z,0
2017-04-17T01:25:51.705Z,0
2017-04-17T01:26:51.731Z,0
2017-04-17T01:27:51.775Z,0
2017-04-17T01:28:51.798Z,0
2017-04-17T01:29:52.300Z,0
2017-04-17T01:30:52.178Z,0
2017-04-17T01:31:51.910Z,0
2017-04-17T01:32:52.536Z,0
2017-04-17T01:33:51.989Z,0
2017-04-17T01:34:52.608Z,0
2017-04-17T01:35:52.046Z,0
2017-04-17T01:36:52.069Z,0
2017-04-17T01:37:52.707Z,0
2017-04-17T01:38:52.824Z,0
2017-04-17T01:39:52.171Z,0
2017-04-17T01:40:52.508Z,0
2017-04-17T01:41:52.246Z,0
2017-04-17T01:42:52.575Z,0
2017-04-17T01:43:52.616Z,0
2017-04-17T01:44:52.649Z,0
2017-04-17T01:45:52.671Z,0
2017-04-17T01:46:52.726Z,0
2017-04-17T01:47:52.746Z,0
2017-04-17T01:48:53.081Z,0
2017-04-17T01:49:52.511Z,0
2017-04-17T01:50:52.568Z,0
2017-04-17T01:51:52.875Z,0
2017-04-17T01:52:52.911Z,0
2017-04-17T01:53:52.650Z,0
2017-04-17T01:54:52.683Z,0
2017-04-17T01:55:53.353Z,0
2017-04-17T01:56:52.739Z,0
2017-04-17T01:57:53.088Z,0
2017-04-17T01:58:53.112Z,0
2017-04-17T01:59:53.172Z,0
2017-04-17T02:00:53.180Z,0
2017-04-17T02:01:52.906Z,0
2017-04-17T02:02:53.563Z,0
2017-04-17T02:03:53.594Z,0
2017-04-17T02:04:53.307Z,0
2017-04-17T02:05:53.480Z,0
2017-04-17T02:06:53.082Z,0
2017-04-17T02:07:53.725Z,0
2017-04-17T02:08:53.750Z,0
2017-04-17T02:09:53.480Z,0
2017-04-17T02:10:53.521Z,0
2017-04-17T02:11:53.249Z,0
2017-04-17T02:12:54.193Z,0
2017-04-17T02:13:53.624Z,0
2017-04-17T02:14:53.564Z,0
2017-04-17T02:15:53.377Z,0
2017-04-17T02:16:53.411Z,0
2017-04-17T02:17:54.067Z,0
2017-04-17T02:18:53.780Z,0
2017-04-17T02:19:53.824Z,0
2017-04-17T02:20:53.865Z,0
2017-04-17T02:21:53.933Z,0
2017-04-17T02:22:53.933Z,0
2017-04-17T02:23:53.708Z,0
2017-04-17T02:24:53.683Z,0
2017-04-17T02:25:53.711Z,0
2017-04-17T02:26:53.753Z,0
2017-04-17T02:27:53.796Z,0
2017-04-17T02:28:54.113Z,0
2017-04-17T02:29:53.856Z,0
2017-04-17T02:30:53.889Z,0
2017-04-17T02:31:53.915Z,0
2017-04-17T02:32:54.255Z,0
2017-04-17T02:33:53.990Z,0
2017-04-17T02:34:54.030Z,0
2017-04-17T02:35:54.057Z,0
2017-04-17T02:36:54.082Z,0
2017-04-17T02:37:54.725Z,0
2017-04-17T02:38:54.157Z,0
2017-04-17T02:39:54.486Z,0
2017-04-17T02:40:54.821Z,0
2017-04-17T02:41:54.257Z,0
2017-04-17T02:42:54.596Z,0
2017-04-17T02:43:54.317Z,0
2017-04-17T02:44:54.363Z,0
2017-04-17T02:45:54.406Z,0
2017-04-17T02:46:54.428Z,0
2017-04-17T02:47:54.756Z,0
2017-04-17T02:48:54.792Z,0
2017-04-17T02:49:54.825Z,0
2017-04-17T02:50:55.060Z,0
2017-04-17T02:51:54.883Z,0
2017-04-17T02:52:55.224Z,0
2017-04-17T02:53:54.955Z,0
2017-04-17T02:54:54.684Z,0
2017-04-17T02:55:55.022Z,0
2017-04-17T02:56:54.760Z,0
2017-04-17T02:57:54.791Z,0
2017-04-17T02:58:54.842Z,0
2017-04-17T02:59:55.640Z,0
2017-04-17T03:00:55.199Z,0
2017-04-17T03:01:54.934Z,0
2017-04-17T03:02:54.954Z,0
2017-04-17T03:03:55.596Z,0
2017-04-17T03:04:55.654Z,0
2017-04-17T03:05:55.054Z,0
2017-04-17T03:06:55.589Z,0
2017-04-17T03:07:55.441Z,0
2017-04-17T03:08:55.470Z,0
2017-04-17T03:09:55.487Z,0
2017-04-17T03:10:55.841Z,0
2017-04-17T03:11:55.880Z,0
2017-04-17T03:12:55.590Z,0
2017-04-17T03:13:56.252Z,0
2017-04-17T03:14:55.661Z,0
2017-04-17T03:15:55.699Z,0
2017-04-17T03:16:55.719Z,0
2017-04-17T03:17:55.954Z,0
2017-04-17T03:18:55.504Z,0
2017-04-17T03:19:55.523Z,0
2017-04-17T03:20:55.869Z,0
2017-04-17T03:21:55.597Z,0
2017-04-17T03:22:55.926Z,0
2017-04-17T03:23:55.669Z,0
2017-04-17T03:24:55.997Z,0
2017-04-17T03:25:55.746Z,0
2017-04-17T03:26:56.176Z,0
2017-04-17T03:27:56.143Z,0
2017-04-17T03:28:56.427Z,0
2017-04-17T03:29:55.870Z,0
2017-04-17T03:30:55.914Z,0
2017-04-17T03:31:55.937Z,0
2017-04-17T03:32:56.267Z,0
2017-04-17T03:33:56.292Z,0
2017-04-17T03:34:56.642Z,0
2017-04-17T03:35:56.265Z,0
2017-04-17T03:36:56.403Z,0
2017-04-17T03:37:56.141Z,0
2017-04-17T03:38:56.166Z,0
2017-04-17T03:39:56.510Z,0
2017-04-17T03:40:56.543Z,0
2017-04-17T03:41:56.260Z,0
2017-04-17T03:42:56.311Z,4
2017-04-17T03:43:56.944Z,4
2017-04-17T03:44:56.356Z,0
2017-04-17T03:45:56.702Z,0
2017-04-17T03:46:56.749Z,4
2017-04-17T03:47:56.471Z,4
2017-04-17T03:48:56.723Z,4
2017-04-17T03:49:56.832Z,4
2017-04-17T03:50:56.556Z,4
2017-04-17T03:51:56.899Z,8
2017-04-17T03:52:56.944Z,4
2017-04-17T03:53:56.671Z,8
2017-04-17T03:54:57.302Z,8
2017-04-17T03:55:56.728Z,8
2017-04-17T03:56:56.774Z,12
2017-04-17T03:57:57.098Z,12
2017-04-17T03:58:56.831Z,12
2017-04-17T03:59:56.872Z,16
2017-04-17T04:00:56.904Z,20
2017-04-17T04:01:56.932Z,24
2017-04-17T04:02:57.267Z,24
2017-04-17T04:03:57.300Z,24
2017-04-17T04:04:57.334Z,28
2017-04-17T04:05:57.665Z,32
2017-04-17T04:06:57.410Z,36
2017-04-17T04:07:57.731Z,36
2017-04-17T04:08:57.465Z,40
2017-04-17T04:09:57.211Z,44
2017-04-17T04:10:57.796Z,44
2017-04-17T04:11:57.561Z,48
2017-04-17T04:12:57.611Z,48
2017-04-17T04:13:57.641Z,52
2017-04-17T04:14:57.665Z,56
2017-04-17T04:15:57.718Z,60
2017-04-17T04:16:57.747Z,68
2017-04-17T04:17:57.791Z,80
2017-04-17T04:18:58.101Z,96
2017-04-17T04:19:57.963Z,112
2017-04-17T04:20:57.577Z,132
2017-04-17T04:21:57.597Z,148
2017-04-17T04:22:58.261Z,168
2017-04-17T04:23:57.979Z,188
2017-04-17T04:24:57.697Z,208
2017-04-17T04:25:57.734Z,228
2017-04-17T04:26:57.764Z,248
2017-04-17T04:27:57.793Z,272
2017-04-17T04:28:57.945Z,296
2017-04-17T04:29:57.864Z,324
2017-04-17T04:30:58.209Z,340
2017-04-17T04:31:57.942Z,356
2017-04-17T04:32:57.984Z,380
2017-04-17T04:33:57.996Z,400
2017-04-17T04:34:58.333Z,428
2017-04-17T04:35:58.063Z,436
2017-04-17T04:36:58.106Z,428
2017-04-17T04:37:58.149Z,404
2017-04-17T04:38:58.166Z,380
2017-04-17T04:39:58.845Z,348
2017-04-17T04:40:58.233Z,328
2017-04-17T04:41:58.595Z,336
2017-04-17T04:42:58.322Z,352
2017-04-17T04:43:58.337Z,364
2017-04-17T04:44:58.373Z,384
2017-04-17T04:45:58.698Z,400
2017-04-17T04:46:58.757Z,416
2017-04-17T04:47:58.768Z,456
2017-04-17T04:48:58.510Z,500
2017-04-17T04:49:58.870Z,528
2017-04-17T04:50:58.891Z,536
2017-04-17T04:51:58.608Z,540
2017-04-17T04:52:59.252Z,560
2017-04-17T04:53:58.666Z,580
2017-04-17T04:54:58.696Z,576
2017-04-17T04:55:59.046Z,528
2017-04-17T04:56:58.766Z,472
2017-04-17T04:57:59.111Z,408
2017-04-17T04:58:58.829Z,368
2017-04-17T04:59:58.873Z,328
2017-04-17T05:00:58.906Z,304
2017-04-17T05:01:59.228Z,284
2017-04-17T05:02:59.265Z,252
2017-04-17T05:03:59.018Z,232
2017-04-17T05:04:59.044Z,224
2017-04-17T05:05:59.360Z,228
2017-04-17T05:06:59.402Z,252
2017-04-17T05:07:59.743Z,304
2017-04-17T05:08:59.464Z,324
2017-04-17T05:09:59.215Z,332
2017-04-17T05:10:59.533Z,356
2017-04-17T05:11:59.281Z,376
2017-04-17T05:12:59.605Z,384
2017-04-17T05:13:59.655Z,384
2017-04-17T05:14:59.667Z,376
2017-04-17T05:15:59.746Z,400
2017-04-17T05:16:59.455Z,448
2017-04-17T05:17:59.781Z,500
2017-04-17T05:18:59.507Z,536
2017-04-17T05:19:59.854Z,560
2017-04-17T05:20:59.567Z,552
2017-04-17T05:21:59.638Z,536
2017-04-17T05:22:59.934Z,532
2017-04-17T05:23:59.681Z,524
2017-04-17T05:25:00.302Z,532
2017-04-17T05:25:59.741Z,552
2017-04-17T05:27:00.009Z,616
2017-04-17T05:27:59.812Z,696
2017-04-17T05:28:59.847Z,744
2017-04-17T05:29:59.865Z,776
2017-04-17T05:31:00.198Z,788
2017-04-17T05:32:00.242Z,800
2017-04-17T05:33:00.279Z,852
2017-04-17T05:34:00.000Z,864
2017-04-17T05:35:00.049Z,856
2017-04-17T05:36:00.063Z,912
2017-04-17T05:37:00.412Z,980
2017-04-17T05:38:00.458Z,1024
2017-04-17T05:39:00.792Z,1028
2017-04-17T05:40:00.196Z,996
2017-04-17T05:41:00.245Z,924
2017-04-17T05:42:00.566Z,824
2017-04-17T05:43:00.609Z,788
2017-04-17T05:44:00.344Z,824
2017-04-17T05:45:00.675Z,868
2017-04-17T05:46:00.713Z,984
2017-04-17T05:47:00.442Z,1056
2017-04-17T05:48:00.785Z,992
2017-04-17T05:49:00.521Z,892
2017-04-17T05:50:00.862Z,796
2017-04-17T05:51:00.593Z,780
2017-04-17T05:52:00.601Z,740
2017-04-17T05:53:00.662Z,692
2017-04-17T05:54:00.663Z,664
2017-04-17T05:55:00.698Z,556
2017-04-17T05:56:00.753Z,436
2017-04-17T05:57:00.766Z,448
2017-04-17T05:58:01.120Z,448
2017-04-17T05:59:01.136Z,504
2017-04-17T06:00:01.178Z,540
2017-04-17T06:01:00.923Z,564
2017-04-17T06:02:00.943Z,572
2017-04-17T06:03:00.971Z,612
2017-04-17T06:04:01.299Z,724
2017-04-17T06:05:01.254Z,804
2017-04-17T06:06:01.378Z,944
2017-04-17T06:07:01.110Z,1204
2017-04-17T06:08:01.466Z,1492
2017-04-17T06:09:01.198Z,1680
2017-04-17T06:10:01.507Z,1684
2017-04-17T06:11:01.361Z,1544
2017-04-17T06:12:01.270Z,1508
2017-04-17T06:13:01.310Z,1448
2017-04-17T06:14:01.336Z,1452
2017-04-17T06:15:01.377Z,1348
2017-04-17T06:16:02.023Z,1280
2017-04-17T06:17:01.438Z,1256
2017-04-17T06:18:01.789Z,1308
2017-04-17T06:19:01.815Z,1456
2017-04-17T06:20:01.864Z,1448
2017-04-17T06:21:01.872Z,1676
2017-04-17T06:22:01.902Z,1636
2017-04-17T06:23:01.663Z,1396
2017-04-17T06:24:01.994Z,1108
2017-04-17T06:25:01.716Z,996
2017-04-17T06:26:02.051Z,928
2017-04-17T06:27:02.391Z,864
2017-04-17T06:28:02.413Z,1092
2017-04-17T06:29:02.141Z,1168
2017-04-17T06:30:02.204Z,904
2017-04-17T06:31:02.094Z,904
2017-04-17T06:32:01.948Z,1112
2017-04-17T06:33:02.292Z,1240
2017-04-17T06:34:02.319Z,1212
2017-04-17T06:35:02.357Z,1348
2017-04-17T06:36:02.384Z,1740
2017-04-17T06:37:02.107Z,1776
2017-04-17T06:38:02.459Z,1728
2017-04-17T06:39:02.284Z,2240
2017-04-17T06:40:02.877Z,2252
2017-04-17T06:41:02.544Z,2284
2017-04-17T06:42:02.286Z,2580
2017-04-17T06:43:02.917Z,3088
2017-04-17T06:44:02.657Z,3548
2017-04-17T06:45:03.010Z,3852
2017-04-17T06:46:02.717Z,3900
2017-04-17T06:47:02.454Z,3800
2017-04-17T06:48:02.783Z,3784
2017-04-17T06:49:03.130Z,3932
2017-04-17T06:50:02.847Z,4416
2017-04-17T06:51:02.589Z,4588
2017-04-17T06:52:02.914Z,4452
2017-04-17T06:53:02.951Z,4432
2017-04-17T06:54:02.686Z,4740
2017-04-17T06:55:02.722Z,5236
2017-04-17T06:56:03.049Z,5540
2017-04-17T06:57:03.033Z,5540
2017-04-17T06:58:02.816Z,5524
2017-04-17T06:59:02.857Z,5492
2017-04-17T07:00:03.189Z,5380
2017-04-17T07:01:02.917Z,5208
2017-04-17T07:02:03.270Z,5008
2017-04-17T07:03:03.623Z,4848
2017-04-17T07:04:03.045Z,4808
2017-04-17T07:05:03.355Z,4844
2017-04-17T07:06:03.121Z,4952
2017-04-17T07:07:03.428Z,5200
2017-04-17T07:08:03.472Z,5332
2017-04-17T07:09:03.493Z,5412
2017-04-17T07:10:03.538Z,5404
2017-04-17T07:11:03.256Z,5292
2017-04-17T07:12:03.611Z,5172
2017-04-17T07:13:03.631Z,5180
2017-04-17T07:14:03.378Z,5344
2017-04-17T07:15:04.307Z,5576
2017-04-17T07:16:03.749Z,5796
2017-04-17T07:17:03.475Z,6076
2017-04-17T07:18:03.818Z,6180
2017-04-17T07:19:03.555Z,6200
2017-04-17T07:20:03.874Z,6232
2017-04-17T07:21:04.225Z,6428
2017-04-17T07:22:03.957Z,6676
2017-04-17T07:23:03.673Z,6900
2017-04-17T07:24:04.310Z,7132
2017-04-17T07:25:03.746Z,7356
2017-04-17T07:26:03.788Z,7684
2017-04-17T07:27:03.813Z,8028
2017-04-17T07:28:03.859Z,8264
2017-04-17T07:29:03.891Z,8492
2017-04-17T07:30:03.924Z,8540
2017-04-17T07:31:04.046Z,8548
2017-04-17T07:32:04.304Z,8592
2017-04-17T07:33:04.329Z,8652
2017-04-17T07:34:04.376Z,8732
2017-04-17T07:35:04.394Z,8872
2017-04-17T07:36:04.138Z,8880
2017-04-17T07:37:04.165Z,8680
2017-04-17T07:38:04.514Z,8352
2017-04-17T07:39:04.235Z,8120
2017-04-17T07:40:04.665Z,7884
2017-04-17T07:41:04.632Z,7768
2017-04-17T07:42:04.648Z,7452
2017-04-17T07:43:04.703Z,7124
2017-04-17T07:44:04.418Z,6772
2017-04-17T07:45:04.753Z,6540
2017-04-17T07:46:04.796Z,6468
2017-04-17T07:47:04.818Z,6444
2017-04-17T07:48:05.171Z,6304
2017-04-17T07:49:04.604Z,5972
2017-04-17T07:50:04.941Z,5876
2017-04-17T07:51:04.663Z,5864
2017-04-17T07:52:05.009Z,5764
2017-04-17T07:53:04.743Z,5712
2017-04-17T07:54:05.088Z,5556
2017-04-17T07:55:05.118Z,5588
2017-04-17T07:56:05.441Z,5680
2017-04-17T07:57:04.896Z,5928
2017-04-17T07:58:05.211Z,6072
2017-04-17T07:59:04.949Z,6060
2017-04-17T08:00:04.992Z,6332
2017-04-17T08:01:05.026Z,6688
2017-04-17T08:02:05.082Z,6840
2017-04-17T08:03:05.391Z,7112
2017-04-17T08:04:05.133Z,7264
2017-04-17T08:05:05.160Z,7280
2017-04-17T08:06:05.201Z,7244
2017-04-17T08:07:05.231Z,7024
2017-04-17T08:08:05.581Z,7024
2017-04-17T08:09:05.298Z,7000
2017-04-17T08:10:05.345Z,6964
2017-04-17T08:11:05.376Z,7100
2017-04-17T08:12:05.420Z,7424
2017-04-17T08:13:05.446Z,8104
2017-04-17T08:14:05.479Z,9244
2017-04-17T08:15:05.858Z,9976
2017-04-17T08:16:05.549Z,10400
2017-04-17T08:17:05.612Z,10976
2017-04-17T08:18:06.241Z,11724
2017-04-17T08:19:05.671Z,12240
2017-04-17T08:20:05.691Z,12568
2017-04-17T08:21:05.738Z,13040
2017-04-17T08:22:05.767Z,13744
2017-04-17T08:23:06.113Z,14868
2017-04-17T08:24:06.075Z,16768
2017-04-17T08:25:05.894Z,20032
2017-04-17T08:26:05.931Z,20864
2017-04-17T08:27:06.553Z,25088
2017-04-17T08:28:06.289Z,30496
2017-04-17T08:29:06.022Z,30784
2017-04-17T08:30:06.076Z,26304
2017-04-17T08:31:06.103Z,25120
2017-04-17T08:32:06.149Z,27616
2017-04-17T08:33:06.180Z,38272
2017-04-17T08:34:06.812Z,44672
2017-04-17T08:35:06.258Z,40768
2017-04-17T08:36:06.295Z,31616
2017-04-17T08:37:06.339Z,27872
2017-04-17T08:38:06.396Z,26464
2017-04-17T08:39:06.712Z,23392
2017-04-17T08:40:06.756Z,20768
2017-04-17T08:41:07.096Z,20864
2017-04-17T08:42:06.813Z,25696
2017-04-17T08:43:07.086Z,27648
2017-04-17T08:44:06.895Z,23296
2017-04-17T08:45:06.958Z,22912
2017-04-17T08:46:06.981Z,27712
2017-04-17T08:47:06.717Z,34080
2017-04-17T08:48:07.052Z,25824
2017-04-17T08:49:06.794Z,23648
2017-04-17T08:50:07.314Z,23744
2017-04-17T08:51:06.875Z,27680
2017-04-17T08:52:06.920Z,25760
2017-04-17T08:53:07.255Z,27040
2017-04-17T08:54:07.301Z,31104
2017-04-17T08:55:07.324Z,36736
2017-04-17T08:56:07.374Z,31648
2017-04-17T08:57:07.414Z,31872
2017-04-17T08:58:07.153Z,27904
2017-04-17T08:59:07.185Z,38944
2017-04-17T09:00:07.534Z,38944
2017-04-17T09:01:07.270Z,29856
2017-04-17T09:02:07.909Z,35744
2017-04-17T09:03:07.646Z,46880
2017-04-17T09:04:07.687Z,51776
2017-04-17T09:05:07.435Z,48704
2017-04-17T09:06:07.462Z,41344
2017-04-17T09:07:07.504Z,42368
2017-04-17T09:08:07.548Z,36448
2017-04-17T09:09:07.607Z,37056
2017-04-17T09:10:07.949Z,30304
2017-04-17T09:11:07.974Z,31008
2017-04-17T09:12:07.712Z,37440
2017-04-17T09:13:08.076Z,34016
2017-04-17T09:14:08.092Z,34464
2017-04-17T09:15:07.839Z,27968
2017-04-17T09:16:07.875Z,38752
2017-04-17T09:17:08.223Z,29472
2017-04-17T09:18:07.953Z,24480
2017-04-17T09:19:08.309Z,23296
2017-04-17T09:20:08.352Z,21120
2017-04-17T09:21:08.390Z,20256
2017-04-17T09:22:08.741Z,18944
2017-04-17T09:23:08.469Z,18560
2017-04-17T09:24:08.802Z,16896
2017-04-17T09:25:08.248Z,16100
2017-04-17T09:26:08.592Z,15992
2017-04-17T09:27:08.636Z,15596
2017-04-17T09:28:08.975Z,14772
2017-04-17T09:29:08.709Z,13792
2017-04-17T09:30:08.450Z,12748
2017-04-17T09:31:09.102Z,12080
2017-04-17T09:32:08.836Z,11604
2017-04-17T09:33:09.184Z,10988
2017-04-17T09:34:08.917Z,10768
2017-04-17T09:35:08.967Z,11356
2017-04-17T09:36:08.689Z,11952
2017-04-17T09:37:09.033Z,12432
2017-04-17T09:38:08.812Z,12156
2017-04-17T09:39:09.117Z,11820
2017-04-17T09:40:08.842Z,11296
2017-04-17T09:41:08.889Z,10284
2017-04-17T09:42:08.924Z,8744
2017-04-17T09:43:08.977Z,7356
2017-04-17T09:44:09.300Z,6320
2017-04-17T09:45:09.041Z,5716
2017-04-17T09:46:09.108Z,5408
2017-04-17T09:47:09.722Z,5188
2017-04-17T09:48:09.158Z,4636
2017-04-17T09:49:09.256Z,4168
2017-04-17T09:50:09.237Z,3940
2017-04-17T09:51:09.578Z,3884
2017-04-17T09:52:09.318Z,3848
2017-04-17T09:53:09.657Z,3892
2017-04-17T09:54:10.003Z,4152
2017-04-17T09:55:09.445Z,4512
2017-04-17T09:56:09.464Z,4744
2017-04-17T09:57:10.108Z,4920
2017-04-17T09:58:09.545Z,5192
2017-04-17T09:59:09.584Z,5476
2017-04-17T10:00:09.919Z,5600
2017-04-17T10:01:09.654Z,5632
2017-04-17T10:02:09.993Z,5608
2017-04-17T10:03:10.028Z,5660
2017-04-17T10:04:10.065Z,5636
2017-04-17T10:05:10.118Z,5484
2017-04-17T10:06:10.339Z,5384
2017-04-17T10:07:09.873Z,5248
2017-04-17T10:08:09.922Z,5208
2017-04-17T10:09:09.945Z,5196
2017-04-17T10:10:10.304Z,5216
2017-04-17T10:11:10.327Z,5232
2017-04-17T10:12:10.357Z,5304
2017-04-17T10:13:10.399Z,5332
2017-04-17T10:14:10.737Z,5364
2017-04-17T10:15:10.162Z,5416
2017-04-17T10:16:10.193Z,5400
2017-04-17T10:17:10.239Z,5348
2017-04-17T10:18:10.570Z,5176
2017-04-17T10:19:10.909Z,4932
2017-04-17T10:20:10.347Z,4756
2017-04-17T10:21:10.381Z,4684
2017-04-17T10:22:10.715Z,4736
2017-04-17T10:23:10.454Z,4924
2017-04-17T10:24:10.682Z,5156
2017-04-17T10:25:10.827Z,5244
2017-04-17T10:26:10.870Z,5332
2017-04-17T10:27:10.590Z,5452
2017-04-17T10:28:10.635Z,5760
2017-04-17T10:29:10.692Z,5992
2017-04-17T10:30:10.694Z,6088
2017-04-17T10:31:11.033Z,6068
2017-04-17T10:32:10.771Z,5924
2017-04-17T10:33:11.109Z,5744
2017-04-17T10:34:10.845Z,5636
2017-04-17T10:35:11.182Z,5568
2017-04-17T10:36:10.920Z,5532
2017-04-17T10:37:11.256Z,5472
2017-04-17T10:38:10.992Z,5480
2017-04-17T10:39:11.022Z,5656
2017-04-17T10:40:11.099Z,5988
2017-04-17T10:41:11.094Z,6380
2017-04-17T10:42:11.133Z,6736
2017-04-17T10:43:11.167Z,7100
2017-04-17T10:44:11.201Z,7496
2017-04-17T10:45:11.539Z,7956
2017-04-17T10:46:11.274Z,8424
2017-04-17T10:47:11.608Z,8920
2017-04-17T10:48:11.644Z,9628
2017-04-17T10:49:12.245Z,10216
2017-04-17T10:50:11.743Z,10588
2017-04-17T10:51:11.760Z,10924
2017-04-17T10:52:11.491Z,11220
2017-04-17T10:53:11.537Z,11380
2017-04-17T10:54:11.864Z,11428
2017-04-17T10:55:11.910Z,11268
2017-04-17T10:56:11.633Z,10908
2017-04-17T10:57:11.663Z,10628
2017-04-17T10:58:11.703Z,10552
2017-04-17T10:59:12.358Z,10556
2017-04-17T11:00:12.075Z,10528
2017-04-17T11:01:11.809Z,10544
2017-04-17T11:02:11.850Z,10540
2017-04-17T11:03:12.211Z,10452
2017-04-17T11:04:11.940Z,10316
2017-04-17T11:05:12.335Z,10160
2017-04-17T11:06:12.101Z,9860
2017-04-17T11:07:12.030Z,9596
2017-04-17T11:08:12.675Z,9456
2017-04-17T11:09:12.116Z,9444
2017-04-17T11:10:12.441Z,9432
2017-04-17T11:11:12.183Z,9424
2017-04-17T11:12:12.522Z,9448
2017-04-17T11:13:12.561Z,9568
2017-04-17T11:14:12.595Z,9800
2017-04-17T11:15:12.331Z,10032
2017-04-17T11:16:12.699Z,10248
2017-04-17T11:17:13.007Z,10432
2017-04-17T11:18:12.433Z,10608
2017-04-17T11:19:12.470Z,11000
2017-04-17T11:20:12.505Z,11844
2017-04-17T11:21:12.848Z,13148
2017-04-17T11:22:12.984Z,14052
2017-04-17T11:23:13.223Z,14244
2017-04-17T11:24:12.662Z,15124
2017-04-17T11:25:12.688Z,15672
2017-04-17T11:26:13.039Z,15932
2017-04-17T11:27:12.782Z,16296
2017-04-17T11:28:13.119Z,17344
2017-04-17T11:29:13.452Z,18624
2017-04-17T11:30:12.876Z,17280
2017-04-17T11:31:13.399Z,16736
2017-04-17T11:32:13.548Z,15768
2017-04-17T11:33:12.985Z,15420
2017-04-17T11:34:13.019Z,14760
2017-04-17T11:35:13.365Z,14156
2017-04-17T11:36:13.406Z,13528
2017-04-17T11:37:13.139Z,13016
2017-04-17T11:38:13.174Z,12600
2017-04-17T11:39:13.609Z,12608
2017-04-17T11:40:13.554Z,12908
2017-04-17T11:41:13.284Z,13644
2017-04-17T11:42:13.626Z,15244
2017-04-17T11:43:13.696Z,16832
2017-04-17T11:44:13.705Z,17792
2017-04-17T11:45:13.744Z,18400
2017-04-17T11:46:13.512Z,18816
2017-04-17T11:47:13.506Z,19040
2017-04-17T11:48:14.328Z,18976
2017-04-17T11:49:13.582Z,18496
2017-04-17T11:50:13.624Z,17856
2017-04-17T11:51:13.664Z,17216
2017-04-17T11:52:14.003Z,16736
2017-04-17T11:53:14.048Z,16076
2017-04-17T11:54:14.071Z,15600
2017-04-17T11:55:14.127Z,15244
2017-04-17T11:56:14.172Z,14960
2017-04-17T11:57:14.189Z,14736
2017-04-17T11:58:14.557Z,14584
2017-04-17T11:59:14.581Z,14408
2017-04-17T12:00:14.003Z,14168
2017-04-17T12:01:14.649Z,13864
2017-04-17T12:02:14.390Z,13624
2017-04-17T12:03:14.132Z,13456
2017-04-17T12:04:14.467Z,13268
2017-04-17T12:05:14.778Z,13020
2017-04-17T12:06:14.839Z,12736
2017-04-17T12:07:14.290Z,12528
2017-04-17T12:08:14.913Z,12444
2017-04-17T12:09:14.964Z,12392
2017-04-17T12:10:14.691Z,12172
2017-04-17T12:11:15.252Z,12012
2017-04-17T12:12:14.470Z,11808
2017-04-17T12:13:14.833Z,11596
2017-04-17T12:14:14.847Z,11468
2017-04-17T12:15:14.910Z,11356
2017-04-17T12:16:15.219Z,11240
2017-04-17T12:17:15.267Z,11128
2017-04-17T12:18:15.612Z,11120
2017-04-17T12:19:15.041Z,11152
2017-04-17T12:20:15.076Z,11232
2017-04-17T12:21:15.128Z,11400
2017-04-17T12:22:14.840Z,11672
2017-04-17T12:23:14.890Z,11868
2017-04-17T12:24:14.930Z,11872
2017-04-17T12:25:14.956Z,11836
2017-04-17T12:26:15.304Z,11744
2017-04-17T12:27:15.345Z,11748
2017-04-17T12:28:15.988Z,11784
2017-04-17T12:29:15.550Z,11732
2017-04-17T12:30:15.453Z,11720
2017-04-17T12:31:15.501Z,11556
2017-04-17T12:32:15.528Z,11492
2017-04-17T12:33:15.275Z,11492
2017-04-17T12:34:15.343Z,11452
2017-04-17T12:35:15.346Z,11428
2017-04-17T12:36:15.379Z,11456
2017-04-17T12:37:15.720Z,11344
2017-04-17T12:38:16.249Z,11324
2017-04-17T12:39:15.800Z,11344
2017-04-17T12:40:15.839Z,11060
2017-04-17T12:41:15.884Z,11036
2017-04-17T12:42:16.218Z,11032
2017-04-17T12:43:15.653Z,11000
2017-04-17T12:44:15.685Z,10964
2017-04-17T12:45:16.045Z,10940
2017-04-17T12:46:16.146Z,10732
2017-04-17T12:47:15.802Z,10652
2017-04-17T12:48:16.163Z,10488
2017-04-17T12:49:16.179Z,10448
2017-04-17T12:50:15.921Z,10352
2017-04-17T12:51:15.957Z,10280
2017-04-17T12:52:16.298Z,10100
2017-04-17T12:53:16.639Z,9760
2017-04-17T12:54:17.083Z,9184
2017-04-17T12:55:16.414Z,8828
2017-04-17T12:56:17.046Z,8948
2017-04-17T12:57:16.190Z,9160
2017-04-17T12:58:16.825Z,9520
2017-04-17T12:59:16.885Z,9740
2017-04-17T13:00:16.920Z,9932
2017-04-17T13:01:16.338Z,10432
2017-04-17T13:02:16.688Z,10988
2017-04-17T13:03:16.433Z,11204
2017-04-17T13:04:17.078Z,10616
2017-04-17T13:05:16.793Z,9620
2017-04-17T13:06:16.829Z,8304
2017-04-17T13:07:16.564Z,7260
2017-04-17T13:08:17.209Z,6256
2017-04-17T13:09:16.944Z,5244
2017-04-17T13:10:16.984Z,4292
2017-04-17T13:11:17.020Z,3544
2017-04-17T13:12:16.762Z,2860
2017-04-17T13:13:16.796Z,2384
2017-04-17T13:14:17.141Z,2140
2017-04-17T13:15:17.167Z,1984
2017-04-17T13:16:16.910Z,1964
2017-04-17T13:17:16.939Z,2100
2017-04-17T13:18:17.289Z,2128
2017-04-17T13:19:17.318Z,2096
2017-04-17T13:20:17.614Z,1904
2017-04-17T13:21:17.098Z,1748
2017-04-17T13:22:17.148Z,1728
2017-04-17T13:23:17.493Z,1792
2017-04-17T13:24:17.520Z,1856
2017-04-17T13:25:17.549Z,1892
2017-04-17T13:26:17.279Z,1932
2017-04-17T13:27:17.917Z,1992
2017-04-17T13:28:17.669Z,2088
2017-04-17T13:29:17.391Z,2208
2017-04-17T13:30:17.427Z,2308
2017-04-17T13:31:17.464Z,2420
2017-04-17T13:32:17.808Z,2488
2017-04-17T13:33:17.839Z,2540
2017-04-17T13:34:17.571Z,2408
2017-04-17T13:35:17.611Z,2200
2017-04-17T13:36:17.648Z,2016
2017-04-17T13:37:18.313Z,1792
2017-04-17T13:38:18.023Z,1516
2017-04-17T13:39:18.360Z,1324
2017-04-17T13:40:18.109Z,1212
2017-04-17T13:41:17.822Z,1324